Time;durP1;ratioP1;P1;durP2;ratioP2;P2;SDS_P1;SDS_P2;PMS_P1;PMS_P2;Temp;Humidity;BMP_temperature;BMP_pressure;BME280_temperature;BME280_humidity;BME280_pressure;Samples;Min_cycle;Max_cycle;Signal;HPM_P1;HPM_P2
2022/09/19 00:01:10;;;;;;;1.38;0.68;;;;;;;23.63;48.20;98475.56;2094286;27;20467;-48
2022/09/19 00:02:12;;;;;;;2.45;0.60;;;;;;;23.60;48.45;98474.16;2092368;28;20078;-46
2022/09/19 00:03:12;;;;;;;1.38;0.75;;;;;;;23.62;48.38;98473.91;2097970;28;20071;-46
2022/09/19 00:04:16;;;;;;;1.25;0.77;;;;;;;23.63;48.22;98470.16;2090377;28;20135;-53
2022/09/19 00:05:17;;;;;;;2.50;0.80;;;;;;;23.61;48.34;98473.09;2094478;27;20055;-50
2022/09/19 00:06:19;;;;;;;1.95;0.98;;;;;;;23.62;48.36;98469.34;2094335;28;20051;-54
2022/09/19 00:07:21;;;;;;;1.88;1.20;;;;;;;23.62;48.05;98463.94;2096141;27;20111;-51
2022/09/19 00:08:23;;;;;;;2.42;1.20;;;;;;;23.62;48.47;98473.91;2092126;28;20047;-54
2022/09/19 00:09:25;;;;;;;4.57;1.20;;;;;;;23.61;48.59;98473.09;2090466;28;20890;-47
2022/09/19 00:10:28;;;;;;;1.38;1.27;;;;;;;23.60;48.48;98471.47;2089327;28;20047;-53
2022/09/19 00:11:29;;;;;;;2.13;0.90;;;;;;;23.60;48.34;98474.16;2091361;27;20062;-50
2022/09/19 00:12:32;;;;;;;1.65;1.15;;;;;;;23.61;48.60;98467.69;2092746;28;20714;-50
2022/09/19 00:13:35;;;;;;;0.98;0.68;;;;;;;23.62;48.52;98468.50;2092779;28;20135;-51
2022/09/19 00:14:37;;;;;;;1.45;0.90;;;;;;;23.61;48.57;98467.69;2098623;27;20513;-51
2022/09/19 00:15:46;;;;;;;3.88;0.70;;;;;;;23.62;48.41;98471.22;2089090;28;20052;-51
2022/09/19 00:16:48;;;;;;;1.42;0.80;;;;;;;23.61;48.40;98464.16;2093189;27;20043;-51
2022/09/19 00:17:49;;;;;;;1.20;0.70;;;;;;;23.61;48.46;98464.16;2098102;28;20056;-52
2022/09/19 00:18:53;;;;;;;1.92;1.00;;;;;;;23.60;48.35;98465.22;2093553;28;20055;-52
2022/09/19 00:19:53;;;;;;;0.55;0.55;;;;;;;23.61;48.55;98466.88;2094509;28;20060;-53
2022/09/19 00:20:55;;;;;;;3.10;1.60;;;;;;;23.59;48.53;98461.69;2093887;27;20052;-47
2022/09/19 00:21:58;;;;;;;1.65;0.82;;;;;;;23.61;48.52;98458.75;2092508;28;20545;-55
2022/09/19 00:25:40;;;;;;;2.10;1.30;;;;;;;23.56;48.46;98464.06;2093747;27;20044;-51
2022/09/19 00:26:41;;;;;;;1.60;1.08;;;;;;;23.57;48.48;98465.72;2093156;27;20138;-46
2022/09/19 00:27:45;;;;;;;0.95;0.68;;;;;;;23.59;48.64;98458.97;2094536;28;20048;-49
2022/09/19 00:28:46;;;;;;;4.40;1.13;;;;;;;23.59;48.54;98450.03;2096793;28;20683;-54
2022/09/19 00:29:49;;;;;;;1.45;0.60;;;;;;;23.60;48.25;98443.56;2099065;28;20056;-50
2022/09/19 00:30:50;;;;;;;1.38;1.08;;;;;;;23.59;48.32;98448.13;2093111;27;20048;-50
2022/09/19 00:31:52;;;;;;;5.47;1.40;;;;;;;23.61;48.52;98447.91;2100244;28;20600;-49
2022/09/19 00:32:53;;;;;;;2.40;0.52;;;;;;;23.60;48.48;98444.38;2098818;27;20772;-48
2022/09/19 00:33:55;;;;;;;1.00;0.45;;;;;;;23.61;48.49;98439.78;2097340;27;20050;-51
2022/09/19 00:34:57;;;;;;;1.40;0.85;;;;;;;23.60;48.42;98438.97;2094553;28;20497;-50
2022/09/19 00:36:03;;;;;;;1.80;0.80;;;;;;;23.62;48.47;98441.41;2099025;28;20051;-50
2022/09/19 00:37:04;;;;;;;0.90;0.47;;;;;;;23.59;48.55;98444.63;2100991;27;20055;-51
2022/09/19 00:38:05;;;;;;;1.05;0.70;;;;;;;23.60;48.41;98438.16;2099496;28;20056;-54
2022/09/19 00:39:09;;;;;;;2.08;0.88;;;;;;;23.57;48.44;98444.88;2096931;28;20048;-52
2022/09/19 00:40:11;;;;;;;1.55;0.80;;;;;;;23.57;48.64;98450.28;2098460;28;20043;-47
2022/09/19 00:41:14;;;;;;;1.05;0.60;;;;;;;23.58;48.47;98445.69;2097970;28;20517;-49
2022/09/19 00:42:19;;;;;;;0.95;0.60;;;;;;;23.59;48.48;98441.91;2097427;28;20052;-53
2022/09/19 00:43:25;;;;;;;2.67;1.00;;;;;;;23.58;48.48;98430.25;2097009;28;20036;-53
2022/09/19 00:44:56;;;;;;;1.88;0.60;;;;;;;23.53;48.70;98434.75;2097425;28;20044;-55
2022/09/19 00:45:57;;;;;;;1.60;0.50;;;;;;;23.52;48.75;98430.41;2095666;28;20097;-51
2022/09/19 00:47:05;;;;;;;1.10;0.73;;;;;;;23.55;48.44;98436.16;2091069;28;20138;-52
2022/09/19 00:48:06;;;;;;;1.60;0.70;;;;;;;23.57;48.78;98430.53;2098226;28;20611;-53
2022/09/19 00:49:14;;;;;;;2.03;0.57;;;;;;;23.57;48.49;98425.09;2095652;28;20648;-52
2022/09/19 00:50:21;;;;;;;1.27;0.93;;;;;;;23.56;48.61;98429.66;2096318;27;20051;-50
2022/09/19 00:51:31;;;;;;;1.02;0.70;;;;;;;23.55;48.67;98430.75;2095492;28;20976;-50
2022/09/19 00:52:40;;;;;;;1.65;0.43;;;;;;;23.55;48.67;98429.94;2097552;28;20086;-48
2022/09/19 00:53:43;;;;;;;2.63;0.80;;;;;;;23.54;48.65;98428.25;2099155;28;20501;-54
2022/09/19 00:54:46;;;;;;;2.42;0.80;;;;;;;23.54;48.60;98433.69;2098175;28;20101;-53
2022/09/19 00:55:53;;;;;;;1.65;0.63;;;;;;;23.56;48.71;98428.84;2098774;28;20642;-48
2022/09/19 00:56:55;;;;;;;2.45;0.82;;;;;;;23.55;48.69;98429.94;2096001;27;20044;-53
2022/09/19 00:58:02;;;;;;;1.20;0.60;;;;;;;23.55;48.52;98428.03;2097590;28;20177;-54
2022/09/19 00:59:05;;;;;;;1.10;0.55;;;;;;;23.55;48.66;98421.81;2096255;27;20044;-51
2022/09/19 01:00:08;;;;;;;1.30;0.80;;;;;;;23.55;48.69;98427.22;2092945;27;20060;-53
2022/09/19 01:01:09;;;;;;;1.58;0.90;;;;;;;23.55;48.52;98422.63;2095129;28;20063;-53
2022/09/19 01:02:11;;;;;;;1.23;0.60;;;;;;;23.56;48.51;98418.03;2097730;28;20655;-46
2022/09/19 01:03:13;;;;;;;0.82;0.60;;;;;;;23.55;48.78;98413.69;2095419;27;20047;-51
2022/09/19 01:04:17;;;;;;;0.98;0.50;;;;;;;23.54;48.67;98412.88;2094998;28;20052;-47
2022/09/19 01:05:27;;;;;;;3.47;0.70;;;;;;;23.54;48.73;98412.03;2093865;27;20043;-52
2022/09/19 01:06:56;;;;;;;1.27;0.80;;;;;;;23.49;48.69;98399.22;2098001;28;20047;-51
2022/09/19 01:08:15;;;;;;;0.95;0.75;;;;;;;23.51;48.64;98404.38;2098513;28;20697;-55
2022/09/19 01:09:40;;;;;;;2.35;0.57;;;;;;;23.48;48.70;98391.34;2095252;27;20048;-54
2022/09/19 01:10:59;;;;;;;1.33;0.35;;;;;;;23.48;48.83;98400.28;2092942;27;20452;-54
2022/09/19 01:12:16;;;;;;;0.98;0.50;;;;;;;23.49;48.62;98398.41;2099212;27;20048;-55
2022/09/19 01:13:24;;;;;;;1.65;0.60;;;;;;;23.49;48.78;98410.06;2093611;28;20159;-49
2022/09/19 01:14:39;;;;;;;0.57;0.50;;;;;;;23.51;48.78;98423.34;2096139;27;20466;-52
2022/09/19 01:15:53;;;;;;;1.33;0.75;;;;;;;23.49;48.76;98415.47;2088811;28;20051;-47
2022/09/19 01:17:04;;;;;;;2.90;0.73;;;;;;;23.50;48.76;98417.09;2092757;28;20050;-50
2022/09/19 01:18:05;;;;;;;;;;;;;;;23.39;49.12;98416.06;2088307;28;20055;-52
2022/09/19 01:19:24;;;;;;;0.75;0.75;;;;;;;23.43;49.12;98411.03;2093453;28;19927;-51
2022/09/19 01:21:37;;;;;;;1.60;0.63;;;;;;;23.44;48.97;98417.25;2094290;28;20453;-50
2022/09/19 01:22:34;;;;;;;0.73;0.55;;;;;;;23.44;49.03;98418.06;2097956;27;20052;-49
2022/09/19 01:23:57;;;;;;;1.00;0.60;;;;;;;23.45;48.96;98418.88;2093780;28;20047;-49
2022/09/19 01:25:00;;;;;;;1.13;0.30;;;;;;;23.46;49.04;98423.22;2095999;28;20131;-51
2022/09/19 01:26:16;;;;;;;1.30;0.70;;;;;;;23.48;48.94;98413.81;2089603;28;20051;-56
2022/09/19 01:27:31;;;;;;;0.88;0.43;;;;;;;23.48;48.88;98410.28;2089939;28;20146;-50
2022/09/19 01:28:38;;;;;;;1.50;0.70;;;;;;;23.49;48.82;98409.25;2088901;28;20094;-49
2022/09/19 01:29:42;;;;;;;2.50;0.73;;;;;;;23.49;48.90;98409.25;2098482;28;20056;-52
2022/09/19 01:31:16;;;;;;;1.65;0.50;;;;;;;23.49;49.03;98406.53;2095565;27;20150;-51
2022/09/19 01:32:18;;;;;;;2.25;1.00;;;;;;;23.47;48.97;98416.78;2094823;28;20047;-53
2022/09/19 01:33:21;;;;;;;0.93;0.85;;;;;;;23.47;48.86;98412.19;2094844;28;20055;-55
2022/09/19 01:34:30;;;;;;;1.38;0.70;;;;;;;23.50;48.97;98410.88;2092802;27;20162;-55
2022/09/19 01:35:37;;;;;;;1.05;0.75;;;;;;;23.50;48.89;98405.47;2095050;28;20044;-50
2022/09/19 01:36:43;;;;;;;1.73;0.50;;;;;;;23.48;48.91;98407.56;2090294;27;21297;-52
2022/09/19 01:37:48;;;;;;;1.00;0.55;;;;;;;23.50;49.05;98410.88;2095043;27;20055;-49
2022/09/19 01:38:51;;;;;;;0.82;0.65;;;;;;;23.49;48.95;98406.53;2092304;27;20086;-48
2022/09/19 01:39:56;;;;;;;1.67;0.63;;;;;;;23.50;48.81;98394.63;2092710;27;20059;-51
2022/09/19 01:40:57;;;;;;;0.55;0.50;;;;;;;23.49;48.82;98398.41;2089321;28;20054;-50
2022/09/19 01:42:00;;;;;;;0.82;0.70;;;;;;;23.48;48.88;98392.16;2091456;27;20052;-49
2022/09/19 01:43:00;;;;;;;2.45;0.70;;;;;;;23.48;48.80;98399.47;2089847;27;20051;-55
2022/09/19 01:44:06;;;;;;;1.00;0.40;;;;;;;23.49;48.94;98399.22;2091167;27;20831;-51
2022/09/19 01:45:10;;;;;;;0.75;0.40;;;;;;;23.49;49.00;98388.41;2091125;28;20047;-52
2022/09/19 01:46:23;;;;;;;1.30;0.68;;;;;;;23.48;49.00;98392.16;2092208;28;20542;-53
2022/09/19 01:47:36;;;;;;;3.25;0.50;;;;;;;23.48;49.11;98394.03;2092088;27;20457;-53
2022/09/19 01:48:47;;;;;;;0.40;0.35;;;;;;;23.45;49.03;98384.53;2091268;27;20063;-51
2022/09/19 01:49:53;;;;;;;0.90;0.47;;;;;;;23.47;49.07;98397.81;2091209;27;20741;-51
2022/09/19 01:51:23;;;;;;;1.10;0.45;;;;;;;23.41;48.98;98395.00;2097396;27;20058;-51
2022/09/19 01:52:39;;;;;;;1.65;0.60;;;;;;;23.42;48.98;98385.00;2092241;28;20138;-53
2022/09/19 01:53:57;;;;;;;0.80;0.30;;;;;;;23.43;48.98;98383.97;2094134;27;20605;-52
2022/09/19 01:55:06;;;;;;;0.77;0.70;;;;;;;23.44;49.22;98382.06;2092930;28;21137;-49
2022/09/19 01:56:12;;;;;;;0.32;0.32;;;;;;;23.45;49.03;98384.53;2088043;28;20056;-53
2022/09/19 01:57:23;;;;;;;0.93;0.68;;;;;;;23.43;48.97;98386.66;2083411;28;21964;-52
2022/09/19 01:58:31;;;;;;;1.17;0.52;;;;;;;23.42;49.08;98385.00;2083935;28;20040;-50
2022/09/19 01:59:47;;;;;;;1.83;0.70;;;;;;;23.42;48.91;98376.88;2081792;28;20048;-51
2022/09/19 02:00:57;;;;;;;1.60;0.45;;;;;;;23.45;48.99;98383.69;2090462;28;20854;-51
2022/09/19 02:02:05;;;;;;;1.08;0.32;;;;;;;23.42;49.15;98380.41;2090956;28;20058;-54
2022/09/19 02:03:22;;;;;;;1.13;0.85;;;;;;;23.42;49.23;98374.19;2097895;28;20570;-51
2022/09/19 02:04:29;;;;;;;0.80;0.52;;;;;;;23.43;48.75;98381.25;2091999;28;20052;-52
2022/09/19 02:05:37;;;;;;;2.00;0.68;;;;;;;23.45;49.15;98371.00;2092485;28;20081;-55
2022/09/19 02:06:46;;;;;;;2.10;0.88;;;;;;;23.45;49.06;98375.59;2094982;28;20056;-47
2022/09/19 02:07:59;;;;;;;1.20;0.30;;;;;;;23.45;49.03;98375.59;2091045;28;20806;-51
2022/09/19 02:09:04;;;;;;;1.35;0.70;;;;;;;23.45;49.14;98370.16;2092358;28;20059;-53
2022/09/19 02:10:10;;;;;;;2.15;1.20;;;;;;;23.44;48.96;98363.13;2092111;28;20162;-52
2022/09/19 02:11:15;;;;;;;1.67;0.52;;;;;;;23.44;49.12;98360.41;2092162;28;20080;-52
2022/09/19 02:12:20;;;;;;;2.03;0.50;;;;;;;23.46;49.08;98355.56;2091664;28;20052;-51
2022/09/19 02:13:24;;;;;;;1.85;0.80;;;;;;;23.45;48.84;98359.34;2094832;28;20079;-50
2022/09/19 02:14:31;;;;;;;0.50;0.47;;;;;;;23.44;49.15;98346.88;2099409;28;20123;-49
2022/09/19 02:15:35;;;;;;;0.73;0.50;;;;;;;23.46;48.98;98358.28;2096600;28;20051;-56
2022/09/19 02:16:45;;;;;;;0.90;0.57;;;;;;;23.47;49.02;98351.81;2092560;28;20052;-54
2022/09/19 02:17:51;;;;;;;0.63;0.30;;;;;;;23.45;49.15;98353.94;2089156;28;20442;-52
2022/09/19 02:18:57;;;;;;;2.08;0.73;;;;;;;23.44;49.16;98352.31;2091354;28;20075;-51
2022/09/19 02:20:02;;;;;;;0.40;0.40;;;;;;;23.42;48.97;98350.63;2090819;28;20055;-55
2022/09/19 02:21:08;;;;;;;0.70;0.40;;;;;;;23.42;49.14;98347.94;2092660;28;20127;-55
2022/09/19 02:22:13;;;;;;;0.82;0.57;;;;;;;23.45;49.07;98348.53;2094585;28;20047;-54
2022/09/19 02:23:18;;;;;;;2.22;0.70;;;;;;;23.44;49.01;98350.41;2090608;28;20048;-53
2022/09/19 02:24:27;;;;;;;1.52;0.60;;;;;;;23.44;49.15;98352.31;2093120;28;20043;-51
2022/09/19 02:25:33;;;;;;;1.20;0.52;;;;;;;23.44;49.04;98346.88;2091281;28;20048;-51
2022/09/19 02:26:37;;;;;;;1.17;0.50;;;;;;;23.45;49.04;98354.75;2090515;28;20097;-51
2022/09/19 02:27:48;;;;;;;1.05;0.60;;;;;;;23.44;48.96;98339.59;2092856;28;20073;-51
2022/09/19 02:28:54;;;;;;;0.80;0.40;;;;;;;23.45;49.05;98340.41;2091659;28;20051;-51
2022/09/19 02:29:58;;;;;;;0.65;0.60;;;;;;;23.46;49.04;98336.63;2093630;28;20078;-52
2022/09/19 02:31:02;;;;;;;0.98;0.70;;;;;;;23.41;49.03;98332.78;2094414;28;20115;-47
2022/09/19 02:32:04;;;;;;;0.40;0.40;;;;;;;23.41;49.20;98340.88;2091791;28;20071;-51
2022/09/19 02:33:07;;;;;;;1.33;0.65;;;;;;;23.44;49.14;98336.06;2089790;28;20806;-49
2022/09/19 02:34:08;;;;;;;0.30;0.30;;;;;;;23.45;49.07;98332.28;2093915;28;20807;-52
2022/09/19 02:35:13;;;;;;;1.10;0.40;;;;;;;23.45;48.94;98327.69;2099676;28;20055;-54
2022/09/19 02:36:19;;;;;;;1.13;0.50;;;;;;;23.43;48.88;98319.00;2096309;28;20044;-49
2022/09/19 02:37:30;;;;;;;0.77;0.40;;;;;;;23.42;48.86;98323.56;2096108;28;20102;-54
2022/09/19 02:38:36;;;;;;;1.45;0.57;;;;;;;23.40;49.03;98320.31;2090185;28;20051;-52
2022/09/19 02:39:45;;;;;;;0.93;0.50;;;;;;;23.40;49.09;98325.72;2095062;28;20048;-53
2022/09/19 02:40:53;;;;;;;0.30;0.30;;;;;;;23.41;49.06;98331.94;2087374;28;21221;-49
2022/09/19 02:42:03;;;;;;;0.65;0.43;;;;;;;23.41;49.03;98337.38;2085939;28;20052;-50
2022/09/19 02:43:14;;;;;;;0.77;0.40;;;;;;;23.39;49.08;98339.47;2084717;28;20079;-50
2022/09/19 02:44:23;;;;;;;1.08;0.40;;;;;;;23.41;49.23;98338.19;2088059;28;20439;-50
2022/09/19 02:45:29;;;;;;;0.50;0.40;;;;;;;23.41;48.93;98335.47;2085723;28;20175;-49
2022/09/19 02:46:41;;;;;;;0.98;0.38;;;;;;;23.39;49.11;98339.47;2082020;28;20052;-51
2022/09/19 02:47:50;;;;;;;0.93;0.60;;;;;;;23.40;48.93;98341.97;2091645;28;20426;-52
2022/09/19 02:48:57;;;;;;;0.88;0.65;;;;;;;23.41;49.13;98349.00;2082042;28;20062;-52
2022/09/19 02:50:03;;;;;;;1.05;0.47;;;;;;;23.41;49.16;98340.88;2084215;28;20738;-55
2022/09/19 02:51:11;;;;;;;0.88;0.50;;;;;;;23.40;49.15;98349.22;2085965;28;20164;-51
2022/09/19 02:52:17;;;;;;;0.85;0.52;;;;;;;23.40;49.16;98341.97;2090564;28;20048;-51
2022/09/19 02:53:26;;;;;;;1.13;0.57;;;;;;;23.39;49.23;98337.59;2090778;28;20550;-53
2022/09/19 02:54:32;;;;;;;1.90;0.60;;;;;;;23.39;49.24;98336.78;2086076;28;20101;-48
2022/09/19 02:55:42;;;;;;;0.90;0.60;;;;;;;23.38;49.28;98338.66;2087805;28;20083;-50
2022/09/19 02:56:44;;;;;;;0.50;0.30;;;;;;;23.37;49.24;98337.03;2095811;28;20125;-54
2022/09/19 02:57:48;;;;;;;0.35;0.25;;;;;;;23.40;49.33;98341.97;2090514;28;20792;-51
2022/09/19 02:58:54;;;;;;;0.60;0.50;;;;;;;23.40;49.20;98339.25;2093714;28;20150;-52
2022/09/19 02:59:59;;;;;;;1.00;0.40;;;;;;;23.40;49.25;98336.56;2091423;28;20048;-49
2022/09/19 03:01:05;;;;;;;1.23;0.40;;;;;;;23.40;49.11;98341.13;2091261;28;20487;-49
2022/09/19 03:02:16;;;;;;;0.93;0.50;;;;;;;23.41;49.41;98340.88;2092533;28;20079;-51
2022/09/19 03:04:46;;;;;;;0.90;0.38;;;;;;;23.37;49.12;98337.03;2092141;28;20048;-51
2022/09/19 03:05:49;;;;;;;0.70;0.40;;;;;;;23.39;49.20;98337.59;2091254;28;20104;-50
2022/09/19 03:06:58;;;;;;;1.02;0.50;;;;;;;23.41;49.18;98342.78;2095947;28;20136;-51
2022/09/19 03:08:03;;;;;;;0.80;0.30;;;;;;;23.41;49.29;98337.38;2091110;28;20113;-52
2022/09/19 03:09:07;;;;;;;0.50;0.32;;;;;;;23.40;49.10;98339.25;2092629;28;20056;-51
2022/09/19 03:10:13;;;;;;;1.60;0.32;;;;;;;23.39;49.27;98339.47;2093542;27;20036;-52
2022/09/19 03:11:19;;;;;;;0.63;0.43;;;;;;;23.39;49.23;98344.91;2093908;27;20088;-53
2022/09/19 03:12:28;;;;;;;0.47;0.22;;;;;;;23.38;49.39;98344.09;2091986;28;20048;-49
2022/09/19 03:13:29;;;;;;;1.00;0.50;;;;;;;23.38;49.35;98349.50;2092274;28;20040;-51
2022/09/19 03:14:32;;;;;;;1.35;0.65;;;;;;;23.39;49.40;98343.00;2093792;28;20136;-53
2022/09/19 03:15:36;;;;;;;0.82;0.40;;;;;;;23.39;49.30;98337.59;2092590;28;20043;-53
2022/09/19 03:16:45;;;;;;;0.63;0.43;;;;;;;23.37;49.17;98339.75;2093504;28;20686;-51
2022/09/19 03:17:50;;;;;;;0.45;0.45;;;;;;;23.37;49.40;98342.44;2098112;28;20047;-47
2022/09/19 03:18:56;;;;;;;1.05;0.30;;;;;;;23.37;49.28;98342.44;2091570;27;20062;-51
2022/09/19 03:19:57;;;;;;;0.47;0.38;;;;;;;23.37;49.49;98339.75;2094260;28;20524;-53
2022/09/19 03:21:02;;;;;;;0.95;0.50;;;;;;;23.38;49.29;98338.66;2092899;28;20082;-56
2022/09/19 03:22:04;;;;;;;0.82;0.45;;;;;;;23.35;49.46;98335.63;2097909;28;20143;-48
2022/09/19 03:23:07;;;;;;;1.38;0.50;;;;;;;23.35;49.39;98339.16;2094204;28;20047;-55
2022/09/19 03:24:11;;;;;;;0.80;0.25;;;;;;;23.35;49.31;98327.50;2101013;28;20047;-53
2022/09/19 03:25:14;;;;;;;0.45;0.30;;;;;;;23.35;49.06;98328.31;2092288;28;20505;-52
2022/09/19 03:26:22;;;;;;;1.58;0.40;;;;;;;23.37;49.18;98334.31;2094354;28;20421;-51
2022/09/19 03:27:23;;;;;;;0.60;0.40;;;;;;;23.34;49.24;98337.50;2094782;28;20054;-54
2022/09/19 03:28:24;;;;;;;0.32;0.32;;;;;;;23.35;49.30;98338.34;2094248;28;20055;-54
2022/09/19 03:29:26;;;;;;;1.20;0.40;;;;;;;23.35;49.18;98339.16;2095189;28;20596;-53
2022/09/19 03:30:27;;;;;;;1.05;0.40;;;;;;;23.38;49.19;98335.97;2092046;27;20108;-53
2022/09/19 03:31:29;;;;;;;1.13;0.60;;;;;;;23.37;49.44;98331.63;2091135;28;20132;-55
2022/09/19 03:32:30;;;;;;;0.60;0.60;;;;;;;23.38;49.41;98329.72;2092933;28;20055;-53
2022/09/19 03:33:34;;;;;;;0.95;0.50;;;;;;;23.37;49.34;98331.63;2092511;28;20051;-55
2022/09/19 03:34:35;;;;;;;1.25;0.57;;;;;;;23.38;49.21;98324.31;2093607;28;20073;-52
2022/09/19 03:35:37;;;;;;;0.38;0.32;;;;;;;23.35;49.38;98331.03;2094828;28;20048;-49
2022/09/19 03:36:40;;;;;;;2.88;0.57;;;;;;;23.36;49.41;98329.97;2091957;27;20052;-56
2022/09/19 03:37:41;;;;;;;1.40;0.60;;;;;;;23.37;49.35;98328.91;2098110;28;20797;-46
2022/09/19 03:38:44;;;;;;;1.13;0.40;;;;;;;23.38;49.49;98333.25;2094536;28;20055;-54
2022/09/19 03:39:46;;;;;;;1.00;0.40;;;;;;;23.36;49.32;98329.97;2094010;28;20640;-51
2022/09/19 03:40:47;;;;;;;2.45;0.50;;;;;;;23.37;49.38;98334.31;2093690;28;20735;-48
2022/09/19 03:41:50;;;;;;;1.35;0.68;;;;;;;23.35;49.45;98333.75;2093999;28;22152;-52
2022/09/19 03:42:52;;;;;;;0.40;0.40;;;;;;;23.37;49.38;98331.63;2092784;27;20917;-53
2022/09/19 03:43:53;;;;;;;0.80;0.45;;;;;;;23.36;49.33;98324.53;2094809;28;20048;-48
2022/09/19 03:44:55;;;;;;;3.22;0.73;;;;;;;23.38;49.47;98322.44;2081853;27;20071;-54
2022/09/19 03:45:56;;;;;;;0.30;0.30;;;;;;;23.37;49.38;98325.38;2092330;28;20101;-52
2022/09/19 03:46:58;;;;;;;0.57;0.20;;;;;;;23.37;49.40;98320.78;2094269;28;20455;-47
2022/09/19 03:48:00;;;;;;;0.30;0.30;;;;;;;23.36;49.34;98308.31;2092796;28;20055;-48
2022/09/19 03:49:04;;;;;;;0.40;0.40;;;;;;;23.36;49.42;98313.72;2093207;28;20052;-53
2022/09/19 03:50:06;;;;;;;0.32;0.30;;;;;;;23.34;49.38;98307.72;2094124;27;20047;-50
2022/09/19 03:51:08;;;;;;;1.85;0.45;;;;;;;23.37;49.44;98315.38;2092681;28;20071;-48
2022/09/19 03:52:10;;;;;;;0.50;0.40;;;;;;;23.35;49.35;98306.69;2101170;28;20119;-51
2022/09/19 03:53:11;;;;;;;0.38;0.30;;;;;;;23.36;49.37;98311.00;2099885;28;20048;-48
2022/09/19 03:54:13;;;;;;;2.38;0.30;;;;;;;23.34;49.19;98310.44;2099536;28;20067;-52
2022/09/19 03:55:14;;;;;;;0.88;0.40;;;;;;;23.35;49.41;98314.81;2100461;28;20055;-55
2022/09/19 03:56:17;;;;;;;2.70;0.47;;;;;;;23.36;49.37;98316.44;2100304;28;20048;-52
2022/09/19 03:57:18;;;;;;;0.57;0.38;;;;;;;23.34;49.41;98305.03;2101643;28;20123;-50
2022/09/19 03:58:20;;;;;;;0.63;0.40;;;;;;;23.35;49.57;98303.16;2101084;28;20613;-53
2022/09/19 03:59:21;;;;;;;1.08;0.65;;;;;;;23.35;49.36;98295.84;2099900;28;20768;-53
2022/09/19 04:00:23;;;;;;;0.90;0.65;;;;;;;23.36;49.38;98299.38;2100422;28;20051;-46
2022/09/19 04:01:23;;;;;;;0.50;0.22;;;;;;;23.35;49.53;98303.97;2099210;28;20058;-52
2022/09/19 04:02:25;;;;;;;0.52;0.50;;;;;;;23.34;49.44;98299.59;2103569;28;20078;-51
2022/09/19 04:03:26;;;;;;;0.65;0.40;;;;;;;23.33;49.71;98297.16;2098342;28;20105;-52
2022/09/19 04:04:29;;;;;;;0.80;0.50;;;;;;;23.35;49.54;98300.44;2099953;28;20498;-53
2022/09/19 04:05:32;;;;;;;1.77;0.40;;;;;;;23.34;49.62;98294.19;2100039;28;20073;-50
2022/09/19 04:06:34;;;;;;;0.40;0.38;;;;;;;23.34;49.44;98296.91;2100076;28;20040;-49
2022/09/19 04:07:37;;;;;;;0.40;0.38;;;;;;;23.34;49.62;98288.78;2099551;28;20232;-49
2022/09/19 04:08:40;;;;;;;1.13;0.82;;;;;;;23.35;49.41;98295.84;2099781;28;20689;-48
2022/09/19 04:09:40;;;;;;;0.45;0.20;;;;;;;23.34;49.66;98299.59;2100680;28;20059;-45
2022/09/19 04:10:42;;;;;;;0.98;0.30;;;;;;;23.33;49.58;98300.69;2101383;28;20841;-46
2022/09/19 04:11:43;;;;;;;0.50;0.28;;;;;;;23.34;49.47;98302.31;2100557;28;20237;-46
2022/09/19 04:12:45;;;;;;;0.70;0.63;;;;;;;23.35;49.49;98303.97;2097692;28;20494;-46
2022/09/19 04:13:49;;;;;;;1.27;0.60;;;;;;;23.34;49.47;98305.03;2103185;28;20109;-47
2022/09/19 04:14:51;;;;;;;1.25;0.30;;;;;;;23.34;49.51;98302.31;2098525;28;20071;-46
2022/09/19 04:15:53;;;;;;;0.40;0.30;;;;;;;23.35;49.45;98303.97;2095721;28;20106;-46
2022/09/19 04:16:55;;;;;;;0.35;0.28;;;;;;;23.34;49.61;98307.72;2099600;28;20055;-45
2022/09/19 04:17:56;;;;;;;0.20;0.20;;;;;;;23.35;49.72;98301.25;2099852;28;20734;-45
2022/09/19 04:18:58;;;;;;;0.85;0.22;;;;;;;23.34;49.52;98304.19;2104857;27;20052;-47
2022/09/19 04:20:01;;;;;;;0.77;0.40;;;;;;;23.34;49.61;98302.31;2103291;27;20074;-46
2022/09/19 04:21:04;;;;;;;0.30;0.30;;;;;;;23.34;49.56;98301.50;2099468;28;20052;-46
2022/09/19 04:22:05;;;;;;;0.57;0.30;;;;;;;23.34;49.66;98299.59;2100865;28;20052;-46
2022/09/19 04:23:07;;;;;;;0.70;0.45;;;;;;;23.34;49.78;98305.03;2098082;28;20047;-46
2022/09/19 04:24:08;;;;;;;0.68;0.60;;;;;;;23.33;49.61;98300.69;2097111;28;20036;-47
2022/09/19 04:25:10;;;;;;;0.50;0.38;;;;;;;23.32;49.60;98307.16;2095060;28;20039;-47
2022/09/19 04:26:12;;;;;;;2.20;0.35;;;;;;;23.35;49.73;98303.97;2091606;28;20051;-46
2022/09/19 04:27:14;;;;;;;1.02;0.30;;;;;;;23.34;49.62;98307.72;2091538;28;20039;-45
2022/09/19 04:28:17;;;;;;;1.35;0.30;;;;;;;23.34;49.67;98307.72;2091443;28;21016;-46
2022/09/19 04:29:19;;;;;;;1.05;0.40;;;;;;;23.34;49.66;98315.03;2092292;28;20358;-46
2022/09/19 04:30:25;;;;;;;0.60;0.50;;;;;;;23.34;49.69;98315.03;2093017;28;20517;-47
2022/09/19 04:31:27;;;;;;;0.55;0.40;;;;;;;23.31;49.67;98308.22;2090119;28;20495;-47
2022/09/19 04:32:28;;;;;;;1.75;0.60;;;;;;;23.33;49.50;98308.78;2092713;27;20132;-45
2022/09/19 04:33:29;;;;;;;1.20;0.22;;;;;;;23.33;49.59;98311.50;2093365;27;20049;-45
2022/09/19 04:34:32;;;;;;;1.13;0.43;;;;;;;23.31;49.60;98312.81;2092760;28;20102;-47
2022/09/19 04:35:35;;;;;;;0.73;0.40;;;;;;;23.34;49.68;98318.53;2092380;28;20056;-46
2022/09/19 04:36:37;;;;;;;0.20;0.20;;;;;;;23.34;49.59;98317.72;2089612;27;20043;-47
2022/09/19 04:37:38;;;;;;;0.57;0.40;;;;;;;23.34;49.77;98309.63;2090701;28;20093;-46
2022/09/19 04:38:40;;;;;;;0.52;0.30;;;;;;;23.33;49.66;98308.78;2093182;28;20109;-45
2022/09/19 04:39:41;;;;;;;1.98;0.30;;;;;;;23.31;49.77;98308.22;2093128;28;20525;-46
2022/09/19 04:40:45;;;;;;;0.25;0.25;;;;;;;23.32;49.66;98312.56;2091956;27;20055;-45
2022/09/19 04:41:52;;;;;;;1.38;0.40;;;;;;;23.30;49.71;98309.28;2090664;27;20080;-46
2022/09/19 04:42:53;;;;;;;2.03;0.28;;;;;;;23.30;49.82;98309.28;2093118;27;20053;-46
2022/09/19 04:43:57;;;;;;;1.85;0.38;;;;;;;23.30;49.77;98308.47;2092194;28;20051;-48
2022/09/19 04:44:58;;;;;;;0.60;0.50;;;;;;;23.30;49.75;98312.00;2092938;28;20047;-47
2022/09/19 04:46:01;;;;;;;1.15;0.50;;;;;;;23.32;49.83;98314.47;2091430;28;20048;-46
2022/09/19 04:47:03;;;;;;;0.52;0.32;;;;;;;23.31;49.67;98310.09;2092125;28;20803;-46
2022/09/19 04:48:06;;;;;;;0.55;0.50;;;;;;;23.33;49.75;98311.50;2090959;28;20286;-46
2022/09/19 04:49:07;;;;;;;1.60;0.30;;;;;;;23.32;49.64;98307.16;2088833;28;20529;-45
2022/09/19 04:50:10;;;;;;;1.08;0.47;;;;;;;23.31;49.69;98313.63;2096335;28;20984;-45
2022/09/19 04:51:12;;;;;;;0.60;0.28;;;;;;;23.32;49.71;98301.75;2090236;28;20047;-46
2022/09/19 04:52:14;;;;;;;2.13;0.25;;;;;;;23.32;49.75;98307.16;2091823;27;20471;-47
2022/09/19 04:53:16;;;;;;;0.70;0.43;;;;;;;23.32;49.72;98306.34;2095853;27;20055;-46
2022/09/19 04:54:19;;;;;;;0.93;0.40;;;;;;;23.30;49.82;98298.47;2098778;28;20048;-46
2022/09/19 04:55:20;;;;;;;0.43;0.32;;;;;;;23.30;49.89;98306.56;2102035;28;20048;-47
2022/09/19 04:56:22;;;;;;;0.30;0.20;;;;;;;23.29;49.59;98302.25;2097734;27;20497;-49
2022/09/19 04:57:26;;;;;;;0.32;0.30;;;;;;;23.31;49.80;98304.69;2098740;28;20040;-46
2022/09/19 04:58:28;;;;;;;3.05;0.40;;;;;;;23.32;49.86;98309.06;2094206;28;20144;-48
2022/09/19 04:59:29;;;;;;;0.98;0.35;;;;;;;23.31;49.91;98305.50;2092053;28;22316;-46
2022/09/19 05:00:40;;;;;;;1.08;0.43;;;;;;;23.32;49.84;98304.47;2092600;28;20055;-47
2022/09/19 05:01:41;;;;;;;1.20;0.65;;;;;;;23.29;49.87;98306.81;2092593;28;20059;-45
2022/09/19 05:02:44;;;;;;;1.17;0.60;;;;;;;23.28;49.86;98314.09;2091125;27;20058;-48
2022/09/19 05:03:45;;;;;;;0.43;0.20;;;;;;;23.28;49.94;98311.41;2092284;27;20047;-47
2022/09/19 05:04:47;;;;;;;0.98;0.50;;;;;;;23.30;49.93;98308.47;2092375;27;20048;-47
2022/09/19 05:05:50;;;;;;;0.40;0.28;;;;;;;23.29;49.97;98315.78;2094171;28;20720;-45
2022/09/19 05:06:53;;;;;;;1.17;0.63;;;;;;;23.29;49.89;98318.47;2093391;28;20051;-46
2022/09/19 05:07:54;;;;;;;1.23;0.63;;;;;;;23.30;49.74;98313.88;2095324;28;20052;-47
2022/09/19 05:08:57;;;;;;;0.47;0.30;;;;;;;23.30;49.86;98320.09;2092268;27;20129;-47
2022/09/19 05:09:58;;;;;;;1.25;0.32;;;;;;;23.30;49.89;98319.28;2091790;28;20079;-49
2022/09/19 05:11:02;;;;;;;0.40;0.30;;;;;;;23.29;49.80;98313.06;2095262;27;20494;-46
2022/09/19 05:12:04;;;;;;;0.30;0.30;;;;;;;23.30;49.87;98317.41;2090098;28;20059;-46